aviador You're here:

SCTE Decoded Metar

PUERTO MONTT in CHILE
Report Time2017-09-23 09:00:00
UTC Time2017-09-23 09:12:12
Flight Rules ifr IFR
WindVRB at 01 kt
Visibility3000 m
Phenomena:Mist
Clouds:Few 003 Hf
Scattered 010 Hf
Expected CloudBase > 400 ft AGL from Temp-Dew spread
CeilingNone
Temp03°C (ISA -11)
Dew Point02°C (93% RH)
AAT1.0°C
QNH1017 hPa
Density Alt-1,145 ft
Elevation282 ft
Report Wrong Elevation
Raw Report
SCTE 230900Z VRB01KT 3000 BR FEW003 SCT010 03/02 Q1017 NOSIG=

Extra information for SCTE:More info

Metar Taf Metar & Taf Last 4 Metars F.Rules Stats Wind Profile Meteogram Temp Stats Airport Information Weather charts Add Link Nearby VenuesMetar ALERT Operation Metar Decoded Social comments